Time;durP1;ratioP1;P1;durP2;ratioP2;P2;SDS_P1;SDS_P2;PMS_P1;PMS_P2;Temp;Humidity;BMP_temperature;BMP_pressure;BME280_temperature;BME280_humidity;BME280_pressure;Samples;Min_cycle;Max_cycle;Signal;HPM_P1;HPM_P2
2023/09/22 00:01:38;;;;;;;6.30;0.60;;;15.50;99.90;;;;;;4921007;29;20036;-62
2023/09/22 00:04:04;;;;;;;1.00;0.50;;;15.60;99.90;;;;;;4924133;29;20031;-61
2023/09/22 00:06:30;;;;;;;1.92;0.55;;;15.60;99.90;;;;;;4922115;29;20032;-61
2023/09/22 00:08:56;;;;;;;1.23;0.60;;;15.60;99.90;;;;;;4926042;29;20046;-61
2023/09/22 00:11:22;;;;;;;3.22;0.70;;;15.60;99.90;;;;;;4925613;29;20023;-62
2023/09/22 00:13:47;;;;;;;2.35;0.50;;;15.60;99.90;;;;;;4925012;29;20024;-61
2023/09/22 00:16:14;;;;;;;1.02;0.90;;;15.50;99.90;;;;;;4926412;29;20485;-61
2023/09/22 00:18:39;;;;;;;2.38;0.50;;;15.50;99.90;;;;;;4924389;29;20126;-62
2023/09/22 00:21:05;;;;;;;3.08;0.50;;;15.40;99.90;;;;;;4925307;29;20188;-61
2023/09/22 00:23:30;;;;;;;1.08;0.57;;;15.30;99.90;;;;;;4926256;29;20110;-61
2023/09/22 00:25:56;;;;;;;0.60;0.40;;;15.30;99.90;;;;;;4928233;29;20027;-61
2023/09/22 00:28:21;;;;;;;0.80;0.40;;;15.30;99.90;;;;;;4929343;29;20055;-62
2023/09/22 00:30:47;;;;;;;8.52;0.40;;;15.30;99.90;;;;;;4929291;29;20048;-61
2023/09/22 00:33:13;;;;;;;1.75;0.50;;;15.20;99.90;;;;;;4925613;29;20034;-61
2023/09/22 00:35:38;;;;;;;0.70;0.50;;;15.20;99.90;;;;;;4929575;29;20024;-61
2023/09/22 00:38:06;;;;;;;2.85;0.55;;;15.20;99.90;;;;;;4928965;29;20079;-61
2023/09/22 00:40:32;;;;;;;1.40;0.50;;;15.20;99.90;;;;;;4928093;29;20023;-61
2023/09/22 00:43:11;;;;;;;2.80;0.50;;;15.20;99.90;;;;;;4930292;29;20090;-61
2023/09/22 00:45:43;;;;;;;1.48;0.52;;;15.20;99.90;;;;;;4929351;29;20118;-61
2023/09/22 00:48:10;;;;;;;10.80;0.60;;;15.20;99.90;;;;;;4928268;29;20082;-61
2023/09/22 00:50:37;;;;;;;2.30;0.60;;;15.20;99.90;;;;;;4927871;29;20031;-62
2023/09/22 00:53:04;;;;;;;2.38;0.57;;;15.10;99.90;;;;;;4928165;29;20042;-61
2023/09/22 00:55:30;;;;;;;3.15;0.60;;;15.10;99.90;;;;;;4930606;29;20042;-61
2023/09/22 00:57:56;;;;;;;2.83;0.65;;;15.10;99.90;;;;;;4927424;29;20028;-61
2023/09/22 01:00:22;;;;;;;0.70;0.52;;;15.10;99.90;;;;;;4927688;29;20032;-61
2023/09/22 01:02:48;;;;;;;1.15;0.70;;;15.10;99.90;;;;;;4928159;29;20040;-62
2023/09/22 01:05:16;;;;;;;1.10;0.50;;;15.10;99.90;;;;;;4927482;29;20079;-61
2023/09/22 01:07:41;;;;;;;2.42;0.40;;;15.10;99.90;;;;;;4930264;29;20035;-61
2023/09/22 01:10:08;;;;;;;1.13;0.40;;;15.00;99.90;;;;;;4929135;29;20031;-61
2023/09/22 01:12:34;;;;;;;0.50;0.40;;;15.00;99.90;;;;;;4929652;29;20032;-61
2023/09/22 01:15:00;;;;;;;0.75;0.40;;;14.90;99.90;;;;;;4928689;29;20552;-60
2023/09/22 01:17:26;;;;;;;1.10;0.50;;;14.90;99.90;;;;;;4930333;29;20038;-61
2023/09/22 01:19:51;;;;;;;0.93;0.43;;;14.90;99.90;;;;;;4931206;29;20035;-59
2023/09/22 01:22:18;;;;;;;1.75;0.45;;;14.90;99.90;;;;;;4925101;29;20028;-61
2023/09/22 01:24:43;;;;;;;2.10;0.50;;;14.90;99.90;;;;;;4930924;29;20031;-62
2023/09/22 01:27:09;;;;;;;2.22;1.00;;;14.90;99.90;;;;;;4927109;29;20024;-61
2023/09/22 01:29:34;;;;;;;2.15;0.50;;;14.90;99.90;;;;;;4927446;29;20559;-61
2023/09/22 01:32:00;;;;;;;0.85;0.50;;;15.00;99.90;;;;;;4927053;29;20206;-61
2023/09/22 01:34:26;;;;;;;1.60;0.55;;;15.00;99.90;;;;;;4927359;29;20039;-60
2023/09/22 01:36:52;;;;;;;0.82;0.40;;;15.00;99.90;;;;;;4925143;29;20392;-62
2023/09/22 01:39:18;;;;;;;0.60;0.40;;;15.10;99.90;;;;;;4926971;29;20039;-61
2023/09/22 01:41:44;;;;;;;2.70;0.50;;;15.10;99.90;;;;;;4925154;29;20033;-61
2023/09/22 01:44:10;;;;;;;1.30;0.47;;;15.10;99.90;;;;;;4927550;29;20031;-60
2023/09/22 01:46:36;;;;;;;0.30;0.30;;;15.10;99.90;;;;;;4929553;29;20058;-62
2023/09/22 01:49:02;;;;;;;1.77;0.60;;;15.00;99.90;;;;;;4925879;29;20559;-61
2023/09/22 01:51:28;;;;;;;1.95;0.40;;;15.00;99.90;;;;;;4924819;29;20028;-61
2023/09/22 01:53:55;;;;;;;0.40;0.40;;;15.00;99.90;;;;;;4924419;29;20407;-62
2023/09/22 01:56:21;;;;;;;1.88;0.70;;;15.00;99.90;;;;;;4926172;29;20352;-62
2023/09/22 01:58:48;;;;;;;0.77;0.50;;;15.00;99.90;;;;;;4928724;29;20030;-62
2023/09/22 02:01:14;;;;;;;0.50;0.47;;;15.00;99.90;;;;;;4927521;29;20052;-61
2023/09/22 02:03:40;;;;;;;1.42;0.57;;;15.00;99.90;;;;;;4925663;29;20114;-62
2023/09/22 02:06:06;;;;;;;1.52;0.40;;;15.00;99.90;;;;;;4928676;29;20147;-60
2023/09/22 02:08:32;;;;;;;2.83;0.50;;;15.00;99.90;;;;;;4927113;29;20532;-62
2023/09/22 02:10:57;;;;;;;2.50;0.70;;;15.00;99.90;;;;;;4925854;29;20031;-62
2023/09/22 02:13:23;;;;;;;6.00;1.13;;;15.10;99.90;;;;;;4929513;29;21224;-61
2023/09/22 02:15:49;;;;;;;1.20;0.50;;;15.10;99.90;;;;;;4927951;29;20544;-61
2023/09/22 02:18:16;;;;;;;0.68;0.50;;;15.20;99.90;;;;;;4926761;29;20036;-62
2023/09/22 02:20:42;;;;;;;0.47;0.47;;;15.20;99.90;;;;;;4928690;29;20404;-61
2023/09/22 02:23:07;;;;;;;0.80;0.60;;;15.30;99.90;;;;;;4925386;29;20507;-61
2023/09/22 02:25:33;;;;;;;1.38;0.57;;;15.20;99.90;;;;;;4926591;29;20035;-61
2023/09/22 02:27:59;;;;;;;4.07;0.85;;;15.20;99.90;;;;;;4925373;29;20400;-64
2023/09/22 02:30:26;;;;;;;0.90;0.60;;;15.30;99.90;;;;;;4924747;29;20035;-61
2023/09/22 02:32:51;;;;;;;3.05;0.80;;;15.20;99.90;;;;;;4926423;28;20083;-61
2023/09/22 02:35:19;;;;;;;2.97;1.08;;;15.10;99.90;;;;;;4924855;29;20031;-62
2023/09/22 02:37:45;;;;;;;2.17;0.82;;;14.90;99.90;;;;;;4929479;29;20090;-62
2023/09/22 02:40:14;;;;;;;0.90;0.70;;;14.80;99.90;;;;;;4926279;29;20084;-62
2023/09/22 02:42:41;;;;;;;1.25;0.60;;;14.80;99.90;;;;;;4927661;29;20123;-62
2023/09/22 02:45:09;;;;;;;2.35;0.80;;;14.70;99.90;;;;;;4929131;29;20036;-62
2023/09/22 02:47:35;;;;;;;1.10;1.00;;;14.70;99.90;;;;;;4926837;29;20384;-62
2023/09/22 02:50:02;;;;;;;0.90;0.73;;;14.60;99.90;;;;;;4927404;29;20054;-62
2023/09/22 02:52:28;;;;;;;2.55;0.80;;;14.50;99.90;;;;;;4907425;29;20040;-61
2023/09/22 02:54:54;;;;;;;1.35;0.73;;;14.40;99.90;;;;;;4911907;29;20043;-62
2023/09/22 02:57:19;;;;;;;1.30;0.70;;;14.30;99.90;;;;;;4925481;29;20503;-62
2023/09/22 02:59:45;;;;;;;0.95;0.80;;;14.30;99.90;;;;;;4924009;29;20055;-62
2023/09/22 03:02:11;;;;;;;1.73;0.95;;;14.20;99.90;;;;;;4927111;29;20123;-62
2023/09/22 03:04:36;;;;;;;1.83;0.82;;;14.20;99.90;;;;;;4926095;29;20440;-62
2023/09/22 03:07:02;;;;;;;1.85;0.77;;;14.10;99.90;;;;;;4925352;29;20039;-62
2023/09/22 03:09:28;;;;;;;1.00;0.90;;;14.10;99.90;;;;;;4925573;28;20028;-61
2023/09/22 03:11:53;;;;;;;1.38;0.85;;;14.10;99.90;;;;;;4927025;29;20115;-61
2023/09/22 03:14:19;;;;;;;1.42;0.90;;;14.20;99.90;;;;;;4908530;29;20039;-62
2023/09/22 03:16:45;;;;;;;1.98;1.00;;;14.20;99.90;;;;;;4926599;29;20038;-62
2023/09/22 03:19:12;;;;;;;2.80;0.88;;;14.20;99.90;;;;;;4925980;29;20040;-61
2023/09/22 03:21:37;;;;;;;1.23;0.82;;;14.20;99.90;;;;;;4925215;28;20540;-62
2023/09/22 03:24:04;;;;;;;1.77;1.15;;;14.20;99.90;;;;;;4926029;29;20059;-62
2023/09/22 03:26:30;;;;;;;3.65;1.00;;;14.20;99.90;;;;;;4923534;29;20035;-63
2023/09/22 03:28:56;;;;;;;1.67;1.10;;;14.30;99.90;;;;;;4927889;29;20028;-62
2023/09/22 03:31:22;;;;;;;1.48;0.82;;;14.30;99.90;;;;;;4925475;29;20028;-62
2023/09/22 03:33:48;;;;;;;7.00;1.48;;;14.30;99.90;;;;;;4925795;28;20024;-62
2023/09/22 03:36:14;;;;;;;2.08;1.00;;;14.30;99.90;;;;;;4925182;29;20457;-62
2023/09/22 03:38:41;;;;;;;1.10;1.00;;;14.40;99.90;;;;;;4927801;28;20050;-62
2023/09/22 03:41:07;;;;;;;2.78;1.10;;;14.30;99.90;;;;;;4928376;29;20031;-62
2023/09/22 03:43:33;;;;;;;1.98;0.98;;;14.40;99.90;;;;;;4927295;29;20036;-62
2023/09/22 03:45:59;;;;;;;9.77;1.20;;;14.40;99.90;;;;;;4928822;28;20033;-61
2023/09/22 03:48:25;;;;;;;1.58;0.93;;;14.40;99.90;;;;;;4927560;29;20719;-62
2023/09/22 03:50:51;;;;;;;1.23;0.98;;;14.40;99.90;;;;;;4924495;29;20035;-62
2023/09/22 03:53:17;;;;;;;1.20;0.90;;;14.40;99.90;;;;;;4923147;29;20107;-62
2023/09/22 03:55:44;;;;;;;1.70;0.90;;;14.40;99.90;;;;;;4924650;29;20480;-62
2023/09/22 03:58:10;;;;;;;1.13;1.00;;;14.40;99.90;;;;;;4923038;29;20036;-60
2023/09/22 04:00:36;;;;;;;1.27;0.85;;;14.30;99.90;;;;;;4929594;29;20036;-62
2023/09/22 04:03:03;;;;;;;1.98;1.30;;;14.30;99.90;;;;;;4929258;29;20107;-62
2023/09/22 04:05:29;;;;;;;2.92;1.00;;;14.30;99.90;;;;;;4929866;29;20028;-62
2023/09/22 04:07:55;;;;;;;2.40;1.08;;;14.40;99.90;;;;;;4929729;29;20058;-62
2023/09/22 04:10:22;;;;;;;1.98;1.10;;;14.40;99.90;;;;;;4928618;29;20040;-63
2023/09/22 04:12:47;;;;;;;2.17;1.00;;;14.40;99.90;;;;;;4929343;29;20039;-62
2023/09/22 04:15:13;;;;;;;1.98;1.17;;;14.50;99.90;;;;;;4928224;29;20036;-62
2023/09/22 04:17:38;;;;;;;7.90;1.58;;;14.50;99.90;;;;;;4928547;29;20032;-62
2023/09/22 04:20:12;;;;;;;2.97;1.20;;;14.50;99.90;;;;;;4930615;29;20115;-62
2023/09/22 04:22:39;;;;;;;3.38;1.02;;;14.50;99.90;;;;;;4926457;29;20054;-62
2023/09/22 04:25:11;;;;;;;6.88;2.28;;;14.50;99.90;;;;;;4925693;29;20136;-62
2023/09/22 04:27:44;;;;;;;4.03;1.10;;;14.50;99.90;;;;;;4931054;29;20035;-63
2023/09/22 04:30:16;;;;;;;2.58;1.20;;;14.50;99.90;;;;;;4928209;29;20396;-62
2023/09/22 04:32:45;;;;;;;15.82;1.70;;;14.50;99.90;;;;;;4929643;29;20042;-62
2023/09/22 04:35:11;;;;;;;9.32;2.78;;;14.50;99.90;;;;;;4929116;29;20024;-62
2023/09/22 04:37:37;;;;;;;4.63;1.23;;;14.60;99.90;;;;;;4926513;29;20032;-62
2023/09/22 04:40:11;;;;;;;1.90;1.10;;;14.60;99.90;;;;;;4927833;29;20373;-62
2023/09/22 04:42:37;;;;;;;1.83;1.10;;;14.50;99.90;;;;;;4930292;29;20039;-62
2023/09/22 04:45:03;;;;;;;2.63;1.00;;;14.50;99.90;;;;;;4928621;29;20047;-63
2023/09/22 04:47:29;;;;;;;2.30;1.02;;;14.50;99.90;;;;;;4926829;29;20035;-62
2023/09/22 04:49:55;;;;;;;3.33;1.00;;;14.40;99.90;;;;;;4932243;29;20011;-62
2023/09/22 04:52:20;;;;;;;3.38;1.00;;;14.40;99.90;;;;;;4929790;29;20036;-62
2023/09/22 04:54:46;;;;;;;6.55;2.05;;;14.30;99.90;;;;;;4929073;29;20035;-62
2023/09/22 04:57:12;;;;;;;3.00;1.27;;;14.40;99.90;;;;;;4928197;29;20035;-61
2023/09/22 04:59:37;;;;;;;3.10;1.15;;;14.30;99.90;;;;;;4928528;29;20048;-62
2023/09/22 05:02:05;;;;;;;1.65;0.68;;;14.30;99.90;;;;;;4927595;29;20048;-62
2023/09/22 05:04:31;;;;;;;1.42;0.93;;;14.30;99.90;;;;;;4931432;29;20083;-62
2023/09/22 05:06:57;;;;;;;2.92;1.00;;;14.30;99.90;;;;;;4931601;29;20055;-62
2023/09/22 05:09:23;;;;;;;1.67;0.90;;;14.30;99.90;;;;;;4927892;29;20500;-62
2023/09/22 05:11:48;;;;;;;3.13;1.13;;;14.30;99.90;;;;;;4927264;29;20031;-62
2023/09/22 05:14:14;;;;;;;3.13;1.27;;;14.30;99.90;;;;;;4929112;28;20495;-62
2023/09/22 05:16:42;;;;;;;4.13;1.33;;;14.30;99.90;;;;;;4931997;29;20027;-61
2023/09/22 05:19:07;;;;;;;2.38;1.30;;;14.30;99.90;;;;;;4926071;29;20063;-62
2023/09/22 05:21:33;;;;;;;3.00;1.25;;;14.30;99.90;;;;;;4931034;29;20111;-62
2023/09/22 05:23:59;;;;;;;3.05;1.40;;;14.30;99.90;;;;;;4930739;29;20023;-61
2023/09/22 05:26:25;;;;;;;3.83;1.40;;;14.30;99.90;;;;;;4928788;29;20175;-62
2023/09/22 05:28:51;;;;;;;3.95;1.23;;;14.30;99.90;;;;;;4926041;29;20035;-62
2023/09/22 05:31:17;;;;;;;1.58;1.10;;;14.20;99.90;;;;;;4931638;29;20028;-62
2023/09/22 05:33:42;;;;;;;3.38;1.10;;;14.20;99.90;;;;;;4928272;29;20055;-62
2023/09/22 05:36:08;;;;;;;1.50;0.90;;;14.20;99.90;;;;;;4924533;29;20036;-62
2023/09/22 05:38:35;;;;;;;2.80;1.15;;;14.10;99.90;;;;;;4929213;29;20452;-62
2023/09/22 05:41:01;;;;;;;3.03;1.02;;;14.10;99.90;;;;;;4927232;29;20115;-62
2023/09/22 05:43:27;;;;;;;3.13;1.08;;;14.10;99.90;;;;;;4928006;29;20118;-62
2023/09/22 05:45:54;;;;;;;3.10;1.05;;;14.10;99.90;;;;;;4928052;29;20076;-62
2023/09/22 05:48:21;;;;;;;4.13;1.25;;;14.00;99.90;;;;;;4925540;28;20137;-63
2023/09/22 05:50:57;;;;;;;3.67;1.33;;;14.00;99.90;;;;;;4929419;29;20500;-62
2023/09/22 05:53:26;;;;;;;2.20;1.60;;;14.00;99.90;;;;;;4927797;28;20036;-61
2023/09/22 05:56:06;;;;;;;4.10;1.30;;;14.00;99.90;;;;;;4927831;29;20028;-63
2023/09/22 05:58:32;;;;;;;2.65;1.30;;;14.10;99.90;;;;;;4926412;29;20040;-62
2023/09/22 06:01:03;;;;;;;6.93;1.55;;;14.20;99.90;;;;;;4929547;29;20042;-62
2023/09/22 06:03:28;;;;;;;6.85;1.27;;;14.20;99.90;;;;;;4908416;29;20047;-62
2023/09/22 06:05:54;;;;;;;3.72;1.40;;;14.30;99.90;;;;;;4912390;29;20040;-62
2023/09/22 06:08:20;;;;;;;4.80;1.25;;;14.30;99.90;;;;;;4927270;29;20031;-62
2023/09/22 06:10:46;;;;;;;4.50;1.38;;;14.30;99.90;;;;;;4926592;29;20031;-62
2023/09/22 06:13:11;;;;;;;3.17;1.60;;;14.40;99.90;;;;;;4921383;29;20088;-61
2023/09/22 06:15:37;;;;;;;4.05;1.20;;;14.50;99.90;;;;;;4927745;29;20032;-61
2023/09/22 06:18:04;;;;;;;8.93;2.13;;;14.50;99.90;;;;;;4929759;29;20107;-61
2023/09/22 06:20:30;;;;;;;9.90;1.60;;;14.50;99.90;;;;;;4924511;29;20488;-62
2023/09/22 06:22:57;;;;;;;18.42;1.70;;;14.50;99.90;;;;;;4926389;29;20115;-62
2023/09/22 06:25:26;;;;;;;2.03;1.20;;;14.60;99.90;;;;;;4926412;29;20114;-62
2023/09/22 06:27:54;;;;;;;3.92;1.67;;;14.60;99.90;;;;;;4928961;29;20039;-62
2023/09/22 06:30:20;;;;;;;2.03;1.17;;;14.60;99.90;;;;;;4927135;28;20103;-62
2023/09/22 06:32:46;;;;;;;1.30;1.20;;;14.70;99.90;;;;;;4928500;29;20111;-62
2023/09/22 06:35:12;;;;;;;1.13;0.98;;;14.70;99.90;;;;;;4931242;29;20023;-61
2023/09/22 06:37:38;;;;;;;1.05;0.90;;;14.70;99.90;;;;;;4928903;29;20593;-62
2023/09/22 06:40:11;;;;;;;3.33;1.05;;;14.60;99.90;;;;;;4928899;29;20032;-62
2023/09/22 06:42:44;;;;;;;1.00;0.90;;;14.50;99.90;;;;;;4930061;28;20036;-62
2023/09/22 06:45:10;;;;;;;6.30;1.80;;;14.50;99.90;;;;;;4926591;29;20111;-62
2023/09/22 06:47:36;;;;;;;1.60;1.20;;;14.50;99.90;;;;;;4926054;29;20723;-62
2023/09/22 06:50:06;;;;;;;1.75;1.00;;;14.50;99.90;;;;;;4929134;29;20028;-62
2023/09/22 06:52:32;;;;;;;3.53;1.10;;;14.50;99.90;;;;;;4928810;29;20542;-62
2023/09/22 06:55:00;;;;;;;6.03;0.95;;;14.60;99.90;;;;;;4927213;29;20404;-62
2023/09/22 06:57:26;;;;;;;3.38;1.13;;;14.60;99.90;;;;;;4928095;29;20042;-62
2023/09/22 06:59:52;;;;;;;2.85;1.30;;;14.60;99.90;;;;;;4926226;29;20032;-61
2023/09/22 07:02:18;;;;;;;2.95;1.02;;;14.60;99.90;;;;;;4910269;29;20411;-62
2023/09/22 07:04:44;;;;;;;3.15;1.40;;;14.60;99.90;;;;;;4929311;29;20103;-62
2023/09/22 07:07:11;;;;;;;1.75;1.20;;;14.60;99.90;;;;;;4929544;29;20115;-61
2023/09/22 07:09:37;;;;;;;1.83;1.27;;;14.60;99.90;;;;;;4928481;29;20107;-62
2023/09/22 07:12:04;;;;;;;5.93;1.10;;;14.60;99.90;;;;;;4927526;29;20035;-62
2023/09/22 07:14:32;;;;;;;2.55;1.10;;;14.50;99.90;;;;;;4923947;29;20031;-61
2023/09/22 07:16:58;;;;;;;3.95;1.30;;;14.50;99.90;;;;;;4924880;29;20397;-61
2023/09/22 07:19:24;;;;;;;3.65;1.50;;;14.50;99.90;;;;;;4926396;29;20043;-61
2023/09/22 07:21:51;;;;;;;3.47;1.25;;;14.60;99.90;;;;;;4925637;29;20036;-61
2023/09/22 07:24:18;;;;;;;3.35;1.38;;;14.60;99.90;;;;;;4928147;29;20444;-62
2023/09/22 07:26:44;;;;;;;2.42;1.27;;;14.70;99.90;;;;;;4925423;29;20103;-61
2023/09/22 07:29:09;;;;;;;1.27;0.90;;;14.70;99.90;;;;;;4923611;29;20033;-62
2023/09/22 07:31:37;;;;;;;1.60;1.27;;;14.60;99.90;;;;;;4927983;29;20071;-60
2023/09/22 07:34:03;;;;;;;3.03;1.23;;;14.60;99.90;;;;;;4927556;28;20032;-60
2023/09/22 07:36:28;;;;;;;2.35;1.27;;;14.60;99.90;;;;;;4927906;29;20031;-60
2023/09/22 07:38:54;;;;;;;4.10;1.42;;;14.70;99.90;;;;;;4925779;28;20036;-62
2023/09/22 07:41:20;;;;;;;1.63;1.13;;;14.70;99.90;;;;;;4926974;29;20396;-62
2023/09/22 07:43:45;;;;;;;3.05;1.10;;;14.80;99.90;;;;;;4926326;29;20583;-63
2023/09/22 07:46:11;;;;;;;1.23;1.10;;;14.80;99.90;;;;;;4925920;29;20036;-62
2023/09/22 07:48:37;;;;;;;1.70;0.90;;;14.70;99.90;;;;;;4925397;29;20515;-62
2023/09/22 07:51:03;;;;;;;0.80;0.80;;;14.70;99.90;;;;;;4924890;29;20494;-62
2023/09/22 07:53:30;;;;;;;1.23;0.90;;;14.70;99.90;;;;;;4912847;29;20506;-62
2023/09/22 07:55:59;;;;;;;3.08;1.00;;;14.70;99.90;;;;;;4928291;29;20124;-63
2023/09/22 07:58:25;;;;;;;1.42;0.98;;;14.70;99.90;;;;;;4927246;29;20060;-62
2023/09/22 08:00:52;;;;;;;1.95;1.05;;;14.70;99.90;;;;;;4924474;29;20038;-62
2023/09/22 08:03:21;;;;;;;1.95;1.10;;;14.60;99.90;;;;;;4927557;29;20054;-62
2023/09/22 08:05:50;;;;;;;1.52;0.90;;;14.60;99.90;;;;;;4927677;29;20040;-62
2023/09/22 08:08:17;;;;;;;4.70;1.10;;;14.60;99.90;;;;;;4928072;29;20047;-61
2023/09/22 08:10:43;;;;;;;3.15;1.20;;;14.60;99.90;;;;;;4928116;29;20028;-60
2023/09/22 08:13:09;;;;;;;2.85;1.08;;;14.70;99.90;;;;;;4929012;29;20035;-59
2023/09/22 08:15:38;;;;;;;1.58;0.95;;;14.80;99.90;;;;;;4927980;29;20582;-60
2023/09/22 08:18:10;;;;;;;2.35;0.68;;;14.80;99.90;;;;;;4928622;28;20046;-61
2023/09/22 08:20:36;;;;;;;2.58;1.00;;;14.80;99.90;;;;;;4927484;29;20721;-60
2023/09/22 08:23:02;;;;;;;1.55;0.80;;;14.90;99.90;;;;;;4927482;29;20039;-60
2023/09/22 08:25:28;;;;;;;1.15;0.77;;;15.00;99.90;;;;;;4926411;29;20024;-60
2023/09/22 08:27:54;;;;;;;0.82;0.80;;;15.10;99.90;;;;;;4925611;29;20391;-60
2023/09/22 08:30:20;;;;;;;1.95;0.93;;;15.20;99.90;;;;;;4925601;29;20102;-60
2023/09/22 08:32:46;;;;;;;1.35;0.70;;;15.30;99.90;;;;;;4928163;29;20481;-60
2023/09/22 08:35:13;;;;;;;1.08;0.60;;;15.40;99.90;;;;;;4927664;29;20488;-60
2023/09/22 08:37:42;;;;;;;1.65;0.80;;;15.40;99.90;;;;;;4927398;29;20067;-60
2023/09/22 08:40:14;;;;;;;0.95;0.65;;;15.50;99.90;;;;;;4927867;29;20529;-60
2023/09/22 08:42:43;;;;;;;2.63;0.70;;;15.50;99.90;;;;;;4910885;29;20118;-60
2023/09/22 08:45:10;;;;;;;1.15;0.50;;;15.50;99.90;;;;;;4926612;29;20694;-60
2023/09/22 08:47:40;;;;;;;2.08;0.77;;;15.50;99.90;;;;;;4929880;29;20048;-60
2023/09/22 08:50:16;;;;;;;2.03;0.88;;;15.50;99.90;;;;;;4929841;29;20494;-60
2023/09/22 08:52:45;;;;;;;1.85;0.80;;;15.50;99.90;;;;;;4929212;29;20492;-60
2023/09/22 08:55:13;;;;;;;13.05;1.85;;;15.50;99.90;;;;;;4928502;29;20697;-59
2023/09/22 08:57:44;;;;;;;1.95;0.80;;;15.60;99.90;;;;;;4927897;29;20051;-60
2023/09/22 09:00:21;;;;;;;2.17;0.80;;;15.60;99.90;;;;;;4925779;29;20036;-60
2023/09/22 09:02:48;;;;;;;1.40;0.70;;;15.60;99.90;;;;;;4928919;29;20221;-60
2023/09/22 09:05:28;;;;;;;0.68;0.68;;;15.60;99.90;;;;;;4925431;29;20039;-60
2023/09/22 09:07:56;;;;;;;2.73;0.90;;;15.60;99.90;;;;;;4916787;29;20024;-59
2023/09/22 09:10:32;;;;;;;2.22;0.75;;;15.60;99.90;;;;;;4927058;29;20484;-60
2023/09/22 09:13:02;;;;;;;1.77;0.60;;;15.70;99.90;;;;;;4928439;29;20080;-60
2023/09/22 09:15:29;;;;;;;0.60;0.60;;;15.70;99.90;;;;;;4931673;29;20036;-60
2023/09/22 09:18:06;;;;;;;2.05;0.60;;;15.70;99.90;;;;;;4928279;29;20619;-60
2023/09/22 09:20:36;;;;;;;0.77;0.77;;;15.70;99.90;;;;;;4927102;29;20531;-61
2023/09/22 09:23:22;;;;;;;1.60;0.90;;;15.60;99.90;;;;;;4928523;29;20436;-61
2023/09/22 09:25:54;;;;;;;1.52;0.70;;;15.60;99.90;;;;;;4925884;29;20555;-60
2023/09/22 09:28:21;;;;;;;2.22;0.77;;;15.70;99.90;;;;;;4924695;29;20036;-61
2023/09/22 09:30:52;;;;;;;4.60;1.08;;;15.80;99.90;;;;;;4927504;29;20035;-60
2023/09/22 09:33:34;;;;;;;1.10;0.50;;;15.80;99.90;;;;;;4929404;29;20036;-60
2023/09/22 09:35:59;;;;;;;3.10;0.95;;;15.90;99.90;;;;;;4924794;29;20024;-60
2023/09/22 09:38:29;;;;;;;1.63;0.85;;;15.90;99.90;;;;;;4925692;28;20032;-60
2023/09/22 09:40:56;;;;;;;2.05;0.88;;;15.80;99.90;;;;;;4928761;29;20091;-60
2023/09/22 09:43:22;;;;;;;1.42;0.90;;;15.70;99.90;;;;;;4925279;29;20500;-61
2023/09/22 09:45:59;;;;;;;2.78;1.15;;;15.70;99.90;;;;;;4926784;29;20079;-60
2023/09/22 09:48:26;;;;;;;2.70;1.10;;;15.70;99.90;;;;;;4930417;29;20024;-60
2023/09/22 09:50:53;;;;;;;2.10;1.42;;;15.80;99.90;;;;;;4927102;29;20024;-60
2023/09/22 09:53:28;;;;;;;1.67;1.58;;;15.90;99.90;;;;;;4923333;29;20039;-62
2023/09/22 09:55:59;;;;;;;1.95;1.60;;;16.10;99.90;;;;;;4927876;29;20043;-61
2023/09/22 09:58:32;;;;;;;2.55;2.03;;;16.40;99.90;;;;;;4928516;29;20028;-61
2023/09/22 10:00:59;;;;;;;1.80;1.70;;;16.50;99.90;;;;;;4927265;29;20094;-60
2023/09/22 10:03:26;;;;;;;2.10;1.48;;;16.70;99.90;;;;;;4925314;29;20040;-61
2023/09/22 10:05:52;;;;;;;1.40;1.30;;;16.70;99.90;;;;;;4927892;29;20035;-61
2023/09/22 10:08:22;;;;;;;2.95;1.40;;;16.70;99.90;;;;;;4928665;29;20032;-61
2023/09/22 10:11:03;;;;;;;1.73;1.10;;;16.60;99.90;;;;;;4926500;29;20020;-61
2023/09/22 10:13:29;;;;;;;;;;;16.50;99.90;;;;;;4927201;29;20028;-61
2023/09/22 10:16:03;;;;;;;1.80;1.20;;;16.30;99.90;;;;;;4927127;29;19910;-61
2023/09/22 10:18:47;;;;;;;3.78;1.10;;;16.20;99.90;;;;;;4925871;29;20028;-61
2023/09/22 10:21:38;;;;;;;1.95;1.05;;;16.10;99.90;;;;;;4928493;28;20404;-61
2023/09/22 10:24:22;;;;;;;1.65;0.90;;;16.00;99.90;;;;;;4924293;29;20068;-61
2023/09/22 10:26:53;;;;;;;1.20;0.73;;;15.90;99.90;;;;;;4927211;28;20031;-61
2023/09/22 10:29:37;;;;;;;1.75;0.60;;;15.90;99.90;;;;;;4925565;29;20103;-62
2023/09/22 10:32:18;;;;;;;1.48;0.63;;;15.80;99.90;;;;;;4927287;29;20031;-60
2023/09/22 10:34:55;;;;;;;0.60;0.60;;;15.80;99.90;;;;;;4929343;29;20522;-61
2023/09/22 10:37:23;;;;;;;0.73;0.68;;;15.80;99.90;;;;;;4925347;29;20512;-61
2023/09/22 10:40:12;;;;;;;0.63;0.63;;;15.70;99.90;;;;;;4928365;29;20453;-61
2023/09/22 10:42:46;;;;;;;2.15;0.80;;;15.60;99.90;;;;;;4926861;29;20028;-60
2023/09/22 10:45:13;;;;;;;1.77;0.60;;;15.50;99.90;;;;;;4914964;29;20052;-61
2023/09/22 10:47:43;;;;;;;2.78;0.70;;;15.50;99.90;;;;;;4924821;29;20563;-62
2023/09/22 10:50:21;;;;;;;1.40;0.60;;;15.50;99.90;;;;;;4925349;29;20028;-61
2023/09/22 10:53:07;;;;;;;0.77;0.50;;;15.40;99.90;;;;;;4928774;29;20047;-61
2023/09/22 10:55:38;;;;;;;0.90;0.70;;;15.40;99.90;;;;;;4926588;29;20039;-61
2023/09/22 10:58:07;;;;;;;5.07;0.70;;;15.30;99.90;;;;;;4928046;29;20032;-61
2023/09/22 11:00:45;;;;;;;2.28;0.77;;;15.30;99.90;;;;;;4927321;29;20126;-61
2023/09/22 11:03:12;;;;;;;3.03;0.77;;;15.30;99.90;;;;;;4927401;29;20044;-60
2023/09/22 11:05:40;;;;;;;2.05;1.13;;;15.40;99.90;;;;;;4925424;29;20032;-61
2023/09/22 11:08:17;;;;;;;1.52;0.73;;;15.50;99.90;;;;;;4926290;29;20083;-61
2023/09/22 11:10:47;;;;;;;0.75;0.60;;;15.70;99.90;;;;;;4925515;29;20404;-61
2023/09/22 11:13:14;;;;;;;1.10;0.80;;;15.90;99.90;;;;;;4930392;29;20032;-61
2023/09/22 11:16:07;;;;;;;2.97;0.70;;;16.00;99.90;;;;;;4929610;28;20095;-62
2023/09/22 11:18:33;;;;;;;0.70;0.70;;;16.20;99.90;;;;;;4926543;29;20028;-61
2023/09/22 11:21:08;;;;;;;1.42;0.70;;;16.30;99.90;;;;;;4928193;29;20032;-60
2023/09/22 11:23:38;;;;;;;3.05;0.50;;;16.40;99.90;;;;;;4927824;29;20043;-61
2023/09/22 11:26:09;;;;;;;0.82;0.55;;;16.50;99.90;;;;;;4926389;29;20023;-61
2023/09/22 11:28:45;;;;;;;2.22;0.60;;;16.50;99.90;;;;;;4929503;29;20036;-62
2023/09/22 11:31:15;;;;;;;1.63;1.52;;;16.50;99.90;;;;;;4922816;29;20099;-61
2023/09/22 11:33:41;;;;;;;3.65;1.02;;;16.50;99.90;;;;;;4926221;29;20044;-61
2023/09/22 11:36:08;;;;;;;0.85;0.60;;;16.40;99.90;;;;;;4929034;29;20032;-61
2023/09/22 11:38:35;;;;;;;0.68;0.60;;;16.40;99.90;;;;;;4926156;29;20063;-60
2023/09/22 11:41:04;;;;;;;0.77;0.60;;;16.30;99.90;;;;;;4926891;29;20024;-60
2023/09/22 11:43:35;;;;;;;0.90;0.63;;;16.30;99.90;;;;;;4926756;29;20119;-61
2023/09/22 11:46:07;;;;;;;1.05;0.70;;;16.40;99.90;;;;;;4925088;29;20032;-61
2023/09/22 11:49:15;;;;;;;1.77;1.67;;;16.40;99.90;;;;;;4923646;29;20052;-61
2023/09/22 11:51:57;;;;;;;0.80;0.60;;;16.40;99.90;;;;;;4925275;29;20032;-62
2023/09/22 11:54:25;;;;;;;1.65;0.60;;;16.40;99.90;;;;;;4928591;29;20024;-62
2023/09/22 11:56:55;;;;;;;3.83;0.80;;;16.40;99.90;;;;;;4926514;29;20504;-62
2023/09/22 11:59:22;;;;;;;0.60;0.60;;;16.40;99.90;;;;;;4925889;29;20032;-62
2023/09/22 12:01:51;;;;;;;3.25;0.82;;;16.40;99.90;;;;;;4925489;29;20075;-61
2023/09/22 12:04:22;;;;;;;0.60;0.60;;;16.40;99.90;;;;;;4924731;28;20031;-61
2023/09/22 12:06:49;;;;;;;1.20;0.60;;;16.40;99.90;;;;;;4924736;29;20040;-61
2023/09/22 12:09:15;;;;;;;2.58;0.68;;;16.40;99.90;;;;;;4923643;28;20457;-62
2023/09/22 12:11:42;;;;;;;2.38;0.73;;;16.40;99.90;;;;;;4925244;29;20039;-60
2023/09/22 12:14:09;;;;;;;1.73;0.50;;;16.50;99.90;;;;;;4922793;29;20027;-61
2023/09/22 12:16:35;;;;;;;1.08;0.70;;;16.40;99.90;;;;;;4923243;28;20036;-61
2023/09/22 12:19:01;;;;;;;1.15;1.00;;;16.50;99.90;;;;;;4927687;29;20679;-61
2023/09/22 12:21:28;;;;;;;1.35;0.82;;;16.50;99.90;;;;;;4927033;29;20047;-61
2023/09/22 12:23:54;;;;;;;1.00;0.65;;;16.50;99.90;;;;;;4930297;29;20123;-61
2023/09/22 12:26:20;;;;;;;1.92;0.90;;;16.50;99.90;;;;;;4928625;29;20086;-61
2023/09/22 12:28:47;;;;;;;5.68;0.77;;;16.50;99.90;;;;;;4928291;29;20019;-61
2023/09/22 12:31:12;;;;;;;1.10;0.70;;;16.60;99.90;;;;;;4927282;28;20074;-62
2023/09/22 12:33:38;;;;;;;0.77;0.73;;;16.60;99.90;;;;;;4928484;29;20051;-62
2023/09/22 12:36:04;;;;;;;0.70;0.70;;;16.70;99.90;;;;;;4927567;29;20031;-61
2023/09/22 12:38:30;;;;;;;1.65;1.00;;;16.70;99.90;;;;;;4927912;29;20032;-61
2023/09/22 12:40:57;;;;;;;0.75;0.70;;;16.70;99.90;;;;;;4929089;29;20030;-61
2023/09/22 12:43:24;;;;;;;0.73;0.57;;;16.70;99.90;;;;;;4929026;29;20033;-60
2023/09/22 12:45:49;;;;;;;1.90;0.70;;;16.70;99.90;;;;;;4926813;29;20504;-61
2023/09/22 12:48:15;;;;;;;1.67;0.75;;;16.70;99.90;;;;;;4911676;29;20052;-61
2023/09/22 12:50:42;;;;;;;1.08;0.60;;;16.70;99.90;;;;;;4929609;29;20044;-61
2023/09/22 12:53:08;;;;;;;1.17;0.80;;;16.70;99.90;;;;;;4929537;29;20036;-61